Time,TemperatureF,DewpointF,PressureIn,WindDirection,WindDirectionDegrees,WindSpeedMPH,WindSpeedGustMPH,Humidity,HourlyPrecipIn,Conditions,Clouds,dailyrainin,SoftwareType,DateUTC
2013-08-02 00:00:00,73.9,68.1,29.87,North,0,2.0,2.0,82,0.00,,,0.19,Wunderground v.1.13,2013-08-02 04:00:00,
2013-08-02 00:02:00,73.9,68.1,29.87,North,357,2.0,2.0,82,0.00,,,0.19,Wunderground v.1.13,2013-08-02 04:02:00,
2013-08-02 00:03:00,73.9,68.1,29.87,North,356,2.0,5.0,82,0.00,,,0.00,Wunderground v.1.13,2013-08-02 04:03:00,
2013-08-02 00:10:00,73.7,67.9,29.87,North,354,3.0,3.0,82,0.00,,,0.00,Wunderground v.1.13,2013-08-02 04:10:00,
2013-08-02 00:12:00,73.7,67.9,29.87,North,356,2.0,2.0,82,0.00,,,0.00,Wunderground v.1.13,2013-08-02 04:12:00,
2013-08-02 00:13:00,73.7,67.9,29.87,North,356,2.0,2.0,82,0.00,,,0.00,Wunderground v.1.13,2013-08-02 04:13:00,
2013-08-02 00:18:00,73.7,68.2,29.85,North,356,1.0,1.0,83,0.00,,,0.00,Wunderground v.1.13,2013-08-02 04:18:00,
2013-08-02 00:24:00,73.3,67.8,29.85,North,359,1.0,1.0,83,0.00,,,0.00,Wunderground v.1.13,2013-08-02 04:24:00,
2013-08-02 00:28:00,73.2,68.1,29.85,North,359,1.0,1.0,84,0.00,,,0.00,Wunderground v.1.13,2013-08-02 04:28:00,
2013-08-02 00:34:00,72.8,66.6,29.85,North,359,0.0,1.0,81,0.00,,,0.00,Wunderground v.1.13,2013-08-02 04:34:00,
2013-08-02 00:40:00,72.8,67.3,29.85,North,359,0.0,0.0,83,0.00,,,0.00,Wunderground v.1.13,2013-08-02 04:40:00,
2013-08-02 00:46:00,72.7,66.9,29.85,North,359,0.0,0.0,82,0.00,,,0.00,Wunderground v.1.13,2013-08-02 04:46:00,
2013-08-02 00:52:00,72.5,67.4,29.85,North,359,0.0,0.0,84,0.00,,,0.00,Wunderground v.1.13,2013-08-02 04:52:00,
2013-08-02 00:58:00,72.3,67.5,29.85,North,359,0.0,0.0,85,0.00,,,0.00,Wunderground v.1.13,2013-08-02 04:58:00,
2013-08-02 01:04:00,72.1,67.3,29.86,North,359,0.0,0.0,85,0.00,,,0.00,Wunderground v.1.13,2013-08-02 05:04:00,
2013-08-02 01:10:00,71.8,67.0,29.86,North,359,0.0,0.0,85,0.00,,,0.00,Wunderground v.1.13,2013-08-02 05:10:00,
2013-08-02 01:16:00,71.6,66.5,29.84,North,359,0.0,0.0,84,0.00,,,0.00,Wunderground v.1.13,2013-08-02 05:16:00,
2013-08-02 01:22:00,71.6,67.5,29.84,North,359,0.0,0.0,87,0.00,,,0.00,Wunderground v.1.13,2013-08-02 05:22:00,
2013-08-02 01:28:00,71.5,67.4,29.84,North,359,0.0,0.0,87,0.00,,,0.00,Wunderground v.1.13,2013-08-02 05:28:00,
2013-08-02 01:34:00,71.3,67.2,29.86,North,359,0.0,0.0,87,0.00,,,0.00,Wunderground v.1.13,2013-08-02 05:34:00,
2013-08-02 01:40:00,70.9,67.2,29.86,NNW,330,1.0,5.0,88,0.00,,,0.01,Wunderground v.1.13,2013-08-02 05:40:00,
2013-08-02 01:46:00,70.8,67.1,29.87,NNW,333,1.0,4.0,88,0.10,,,0.03,Wunderground v.1.13,2013-08-02 05:46:00,
2013-08-02 01:52:00,70.4,66.7,29.87,North,359,1.0,1.0,88,0.13,,,0.04,Wunderground v.1.13,2013-08-02 05:52:00,
2013-08-02 01:58:00,70.3,67.2,29.87,North,359,0.0,0.0,90,0.19,,,0.05,Wunderground v.1.13,2013-08-02 05:58:00,
2013-08-02 02:04:00,69.9,67.2,29.87,North,359,0.0,0.0,91,0.30,,,0.08,Wunderground v.1.13,2013-08-02 06:04:00,
2013-08-02 02:09:00,69.8,67.4,29.87,North,357,0.0,0.0,92,0.19,,,0.10,Wunderground v.1.13,2013-08-02 06:09:00,
2013-08-02 02:16:00,69.6,67.5,29.87,North,349,0.0,0.0,93,0.07,,,0.10,Wunderground v.1.13,2013-08-02 06:16:00,
2013-08-02 02:22:00,69.4,67.3,29.87,North,349,0.0,0.0,93,0.04,,,0.10,Wunderground v.1.13,2013-08-02 06:22:00,
2013-08-02 02:28:00,69.4,67.3,29.87,North,349,0.0,0.0,93,0.00,,,0.10,Wunderground v.1.13,2013-08-02 06:28:00,
2013-08-02 02:34:00,69.4,67.3,29.87,North,349,0.0,0.0,93,0.00,,,0.10,Wunderground v.1.13,2013-08-02 06:34:00,
2013-08-02 02:40:00,69.3,67.5,29.87,North,349,0.0,1.0,94,0.00,,,0.10,Wunderground v.1.13,2013-08-02 06:40:00,
2013-08-02 02:46:00,69.1,67.3,29.86,North,349,0.0,0.0,94,0.00,,,0.10,Wunderground v.1.13,2013-08-02 06:46:00,
2013-08-02 02:52:00,69.1,67.3,29.86,North,349,0.0,0.0,94,0.00,,,0.10,Wunderground v.1.13,2013-08-02 06:52:00,
2013-08-02 02:58:00,68.9,67.1,29.86,North,349,0.0,0.0,94,0.00,,,0.10,Wunderground v.1.13,2013-08-02 06:58:00,
2013-08-02 03:04:00,68.9,67.1,29.84,North,349,0.0,0.0,94,0.00,,,0.10,Wunderground v.1.13,2013-08-02 07:04:00,
2013-08-02 03:10:00,68.8,67.0,29.84,North,349,0.0,0.0,94,0.00,,,0.10,Wunderground v.1.13,2013-08-02 07:10:00,
2013-08-02 03:16:00,68.6,67.1,29.84,North,349,0.0,0.0,95,0.00,,,0.10,Wunderground v.1.13,2013-08-02 07:16:00,
2013-08-02 03:24:00,68.6,67.1,29.84,North,349,0.0,0.0,95,0.00,,,0.10,Wunderground v.1.13,2013-08-02 07:24:00,
2013-08-02 03:30:00,68.6,67.1,29.84,North,349,0.0,0.0,95,0.00,,,0.10,Wunderground v.1.13,2013-08-02 07:30:00,
2013-08-02 03:36:00,68.4,66.9,29.83,North,349,0.0,0.0,95,0.00,,,0.10,Wunderground v.1.13,2013-08-02 07:36:00,
2013-08-02 03:42:00,68.4,66.9,29.83,North,349,0.0,0.0,95,0.00,,,0.10,Wunderground v.1.13,2013-08-02 07:42:00,
2013-08-02 03:48:00,68.3,66.8,29.84,North,349,0.0,0.0,95,0.00,,,0.10,Wunderground v.1.13,2013-08-02 07:48:00,
2013-08-02 03:53:00,68.3,66.8,29.84,North,349,0.0,0.0,95,0.00,,,0.10,Wunderground v.1.13,2013-08-02 07:53:00,
2013-08-02 04:00:00,68.1,66.6,29.84,North,349,0.0,0.0,95,0.00,,,0.10,Wunderground v.1.13,2013-08-02 08:00:00,
2013-08-02 04:06:00,68.1,66.6,29.83,North,349,0.0,0.0,95,0.00,,,0.10,Wunderground v.1.13,2013-08-02 08:06:00,
2013-08-02 04:12:00,67.9,66.4,29.83,North,349,0.0,0.0,95,0.00,,,0.10,Wunderground v.1.13,2013-08-02 08:12:00,
2013-08-02 04:17:00,67.9,66.4,29.83,North,349,0.0,0.0,95,0.00,,,0.10,Wunderground v.1.13,2013-08-02 08:17:00,
2013-08-02 04:24:00,67.8,66.3,29.83,North,349,0.0,0.0,95,0.00,,,0.10,Wunderground v.1.13,2013-08-02 08:24:00,
2013-08-02 04:30:00,67.8,66.3,29.83,North,349,0.0,0.0,95,0.00,,,0.10,Wunderground v.1.13,2013-08-02 08:30:00,
2013-08-02 04:36:00,67.6,66.1,29.84,North,349,0.0,0.0,95,0.00,,,0.10,Wunderground v.1.13,2013-08-02 08:36:00,
2013-08-02 04:42:00,67.6,66.1,29.84,North,349,0.0,0.0,95,0.00,,,0.10,Wunderground v.1.13,2013-08-02 08:42:00,
2013-08-02 04:48:00,67.6,66.1,29.84,North,349,0.0,0.0,95,0.00,,,0.10,Wunderground v.1.13,2013-08-02 08:48:00,
2013-08-02 04:56:00,67.4,65.9,29.84,North,349,0.0,0.0,95,0.00,,,0.10,Wunderground v.1.13,2013-08-02 08:56:00,
2013-08-02 05:02:00,67.4,65.9,29.84,North,349,0.0,0.0,95,0.00,,,0.10,Wunderground v.1.13,2013-08-02 09:02:00,
2013-08-02 05:08:00,67.4,65.9,29.84,North,349,0.0,0.0,95,0.00,,,0.11,Wunderground v.1.13,2013-08-02 09:08:00,
2013-08-02 05:14:00,67.4,65.9,29.84,North,349,0.0,0.0,95,0.00,,,0.11,Wunderground v.1.13,2013-08-02 09:14:00,
2013-08-02 05:20:00,67.4,66.2,29.85,North,349,0.0,0.0,96,0.00,,,0.11,Wunderground v.1.13,2013-08-02 09:20:00,
2013-08-02 05:26:00,67.4,66.2,29.85,North,349,0.0,0.0,96,0.00,,,0.11,Wunderground v.1.13,2013-08-02 09:26:00,
2013-08-02 05:32:00,67.6,66.4,29.86,North,349,0.0,0.0,96,0.00,,,0.11,Wunderground v.1.13,2013-08-02 09:32:00,
2013-08-02 05:40:00,67.6,66.4,29.86,North,349,0.0,0.0,96,0.00,,,0.11,Wunderground v.1.13,2013-08-02 09:40:00,
2013-08-02 05:46:00,67.6,66.4,29.86,North,349,0.0,0.0,96,0.00,,,0.11,Wunderground v.1.13,2013-08-02 09:46:00,
2013-08-02 05:52:00,67.4,66.2,29.86,North,349,0.0,0.0,96,0.00,,,0.11,Wunderground v.1.13,2013-08-02 09:52:00,
2013-08-02 05:58:00,67.4,66.2,29.86,North,349,0.0,0.0,96,0.00,,,0.11,Wunderground v.1.13,2013-08-02 09:58:00,
2013-08-02 06:04:00,67.4,66.2,29.86,North,349,0.0,0.0,96,0.00,,,0.11,Wunderground v.1.13,2013-08-02 10:04:00,
2013-08-02 06:10:00,67.4,66.2,29.86,North,349,0.0,0.0,96,0.00,,,0.11,Wunderground v.1.13,2013-08-02 10:10:00,
2013-08-02 06:16:00,67.3,66.1,29.87,North,349,0.0,0.0,96,0.00,,,0.11,Wunderground v.1.13,2013-08-02 10:16:00,
2013-08-02 06:22:00,67.3,66.1,29.87,North,349,0.0,0.0,96,0.00,,,0.11,Wunderground v.1.13,2013-08-02 10:22:00,
2013-08-02 06:28:00,67.3,66.1,29.87,North,349,0.0,0.0,96,0.00,,,0.11,Wunderground v.1.13,2013-08-02 10:28:00,
2013-08-02 06:34:00,67.1,65.9,29.87,North,349,0.0,0.0,96,0.00,,,0.11,Wunderground v.1.13,2013-08-02 10:34:00,
2013-08-02 06:40:00,67.1,65.9,29.87,North,349,0.0,0.0,96,0.00,,,0.11,Wunderground v.1.13,2013-08-02 10:40:00,
2013-08-02 06:48:00,67.1,65.9,29.88,North,349,0.0,0.0,96,0.00,,,0.11,Wunderground v.1.13,2013-08-02 10:48:00,
2013-08-02 06:54:00,67.1,65.9,29.88,North,349,0.0,0.0,96,0.00,,,0.11,Wunderground v.1.13,2013-08-02 10:54:00,
2013-08-02 07:00:00,67.1,65.9,29.88,North,349,0.0,0.0,96,0.00,,,0.11,Wunderground v.1.13,2013-08-02 11:00:00,
2013-08-02 07:06:00,67.1,65.9,29.89,North,349,0.0,0.0,96,0.00,,,0.11,Wunderground v.1.13,2013-08-02 11:06:00,
2013-08-02 07:12:00,67.1,65.9,29.89,North,349,0.0,0.0,96,0.00,,,0.11,Wunderground v.1.13,2013-08-02 11:12:00,
2013-08-02 07:18:00,67.1,65.9,29.90,North,349,0.0,0.0,96,0.00,,,0.11,Wunderground v.1.13,2013-08-02 11:18:00,
2013-08-02 07:23:00,67.1,66.2,29.90,North,349,0.0,0.0,97,0.00,,,0.11,Wunderground v.1.13,2013-08-02 11:23:00,
2013-08-02 07:30:00,67.3,66.4,29.90,North,349,0.0,0.0,97,0.00,,,0.11,Wunderground v.1.13,2013-08-02 11:30:00,
2013-08-02 07:38:00,67.4,66.5,29.90,North,349,0.0,0.0,97,0.00,,,0.11,Wunderground v.1.13,2013-08-02 11:38:00,
2013-08-02 07:44:00,67.4,66.5,29.90,North,349,0.0,0.0,97,0.00,,,0.11,Wunderground v.1.13,2013-08-02 11:44:00,
2013-08-02 07:50:00,67.6,66.7,29.90,North,349,0.0,0.0,97,0.00,,,0.11,Wunderground v.1.13,2013-08-02 11:50:00,
2013-08-02 07:56:00,67.8,66.9,29.90,North,349,0.0,0.0,97,0.00,,,0.11,Wunderground v.1.13,2013-08-02 11:56:00,
2013-08-02 08:02:00,67.9,67.0,29.91,North,349,0.0,0.0,97,0.00,,,0.11,Wunderground v.1.13,2013-08-02 12:02:00,
2013-08-02 08:08:00,68.1,67.2,29.91,North,349,0.0,0.0,97,0.00,,,0.11,Wunderground v.1.13,2013-08-02 12:08:00,
2013-08-02 08:14:00,68.4,67.5,29.91,North,349,0.0,0.0,97,0.00,,,0.11,Wunderground v.1.13,2013-08-02 12:14:00,
2013-08-02 08:20:00,68.8,67.9,29.91,North,349,0.0,0.0,97,0.00,,,0.11,Wunderground v.1.13,2013-08-02 12:20:00,
2013-08-02 08:26:00,68.9,68.0,29.91,North,349,0.0,0.0,97,0.00,,,0.11,Wunderground v.1.13,2013-08-02 12:26:00,
2013-08-02 08:32:00,69.1,68.2,29.92,North,349,0.0,0.0,97,0.00,,,0.11,Wunderground v.1.13,2013-08-02 12:32:00,
2013-08-02 08:38:00,69.4,68.5,29.92,North,349,0.0,0.0,97,0.00,,,0.11,Wunderground v.1.13,2013-08-02 12:38:00,
2013-08-02 08:44:00,69.6,69.0,29.92,North,349,0.0,0.0,98,0.00,,,0.11,Wunderground v.1.13,2013-08-02 12:44:00,
2013-08-02 08:50:00,69.9,69.3,29.93,North,349,0.0,0.0,98,0.00,,,0.11,Wunderground v.1.13,2013-08-02 12:50:00,
2013-08-02 08:56:00,70.1,69.5,29.93,North,349,0.0,0.0,98,0.00,,,0.11,Wunderground v.1.13,2013-08-02 12:56:00,
2013-08-02 09:02:00,70.4,69.8,29.93,North,349,0.0,0.0,98,0.00,,,0.11,Wunderground v.1.13,2013-08-02 13:02:00,
2013-08-02 09:08:00,70.8,70.2,29.93,North,349,0.0,0.0,98,0.00,,,0.11,Wunderground v.1.13,2013-08-02 13:08:00,
2013-08-02 09:14:00,70.9,70.3,29.93,North,349,0.0,0.0,98,0.00,,,0.11,Wunderground v.1.13,2013-08-02 13:14:00,
2013-08-02 09:20:00,71.1,70.5,29.93,North,349,0.0,1.0,98,0.00,,,0.11,Wunderground v.1.13,2013-08-02 13:20:00,
2013-08-02 09:26:00,70.9,70.0,29.93,North,349,1.0,1.0,97,0.00,,,0.11,Wunderground v.1.13,2013-08-02 13:26:00,
2013-08-02 09:32:00,71.3,70.4,29.93,North,349,0.0,0.0,97,0.00,,,0.11,Wunderground v.1.13,2013-08-02 13:32:00,
2013-08-02 09:38:00,73.0,70.9,29.93,North,349,0.0,0.0,93,0.00,,,0.11,Wunderground v.1.13,2013-08-02 13:38:00,
2013-08-02 09:44:00,73.9,70.5,29.93,North,349,0.0,0.0,89,0.00,,,0.11,Wunderground v.1.13,2013-08-02 13:44:00,
2013-08-02 09:50:00,74.2,69.4,29.92,North,349,0.0,0.0,85,0.00,,,0.11,Wunderground v.1.13,2013-08-02 13:50:00,
2013-08-02 09:56:00,74.7,70.9,29.92,North,349,0.0,0.0,88,0.00,,,0.11,Wunderground v.1.13,2013-08-02 13:56:00,
2013-08-02 10:02:00,75.4,71.3,29.93,North,349,0.0,0.0,87,0.00,,,0.11,Wunderground v.1.13,2013-08-02 14:02:00,
2013-08-02 10:10:00,75.1,71.0,29.93,NNW,339,0.0,1.0,87,0.00,,,0.11,Wunderground v.1.13,2013-08-02 14:10:00,
2013-08-02 10:16:00,75.4,69.9,29.93,NNW,339,0.0,0.0,83,0.00,,,0.11,Wunderground v.1.13,2013-08-02 14:16:00,
2013-08-02 10:22:00,76.1,69.8,29.93,NNW,339,0.0,0.0,81,0.00,,,0.11,Wunderground v.1.13,2013-08-02 14:22:00,
2013-08-02 10:28:00,76.3,70.8,29.93,NNW,339,0.0,0.0,83,0.00,,,0.11,Wunderground v.1.13,2013-08-02 14:28:00,
2013-08-02 10:34:00,76.8,69.0,29.93,NNW,339,0.0,0.0,77,0.00,,,0.11,Wunderground v.1.13,2013-08-02 14:34:00,
2013-08-02 10:40:00,77.4,69.2,29.93,NNW,339,0.0,0.0,76,0.00,,,0.11,Wunderground v.1.13,2013-08-02 14:40:00,
2013-08-02 10:48:00,77.7,70.3,29.94,NNW,339,0.0,1.0,78,0.00,,,0.11,Wunderground v.1.13,2013-08-02 14:48:00,
2013-08-02 10:54:00,79.4,69.2,29.94,North,352,1.0,3.0,71,0.00,,,0.11,Wunderground v.1.13,2013-08-02 14:54:00,
2013-08-02 11:00:00,79.4,68.8,29.94,North,352,1.0,1.0,70,0.00,,,0.11,Wunderground v.1.13,2013-08-02 15:00:00,
2013-08-02 11:06:00,79.4,70.0,29.93,North,352,0.0,0.0,73,0.00,,,0.11,Wunderground v.1.13,2013-08-02 15:06:00,
2013-08-02 11:12:00,80.5,69.0,29.93,North,352,0.0,0.0,68,0.00,,,0.11,Wunderground v.1.13,2013-08-02 15:12:00,
2013-08-02 11:18:00,80.7,69.6,29.93,North,352,0.0,0.0,69,0.00,,,0.11,Wunderground v.1.13,2013-08-02 15:18:00,
2013-08-02 11:24:00,80.7,69.2,29.93,North,352,0.0,0.0,68,0.00,,,0.11,Wunderground v.1.13,2013-08-02 15:24:00,
2013-08-02 11:30:00,80.7,70.8,29.93,North,352,0.0,0.0,72,0.00,,,0.11,Wunderground v.1.13,2013-08-02 15:30:00,
2013-08-02 11:36:00,79.2,71.0,29.94,North,352,0.0,0.0,76,0.00,,,0.11,Wunderground v.1.13,2013-08-02 15:36:00,
2013-08-02 11:42:00,79.0,71.6,29.94,North,352,0.0,0.0,78,0.00,,,0.11,Wunderground v.1.13,2013-08-02 15:42:00,
2013-08-02 11:48:00,81.4,68.9,29.94,North,352,0.0,0.0,66,0.00,,,0.11,Wunderground v.1.13,2013-08-02 15:48:00,
2013-08-02 11:53:00,79.9,67.5,29.94,North,352,0.0,0.0,66,0.00,,,0.11,Wunderground v.1.13,2013-08-02 15:53:00,
2013-08-02 12:00:00,79.4,71.2,29.94,North,352,0.0,0.0,76,0.00,,,0.11,Wunderground v.1.13,2013-08-02 16:00:00,
2013-08-02 12:06:00,81.6,69.6,29.93,North,352,0.0,0.0,67,0.00,,,0.11,Wunderground v.1.13,2013-08-02 16:06:00,
2013-08-02 12:12:00,82.6,69.2,29.93,North,352,0.0,0.0,64,0.00,,,0.11,Wunderground v.1.13,2013-08-02 16:12:00,
2013-08-02 12:18:00,83.0,67.7,29.93,North,352,0.0,0.0,60,0.00,,,0.11,Wunderground v.1.13,2013-08-02 16:18:00,
2013-08-02 12:24:00,81.4,70.2,29.93,North,352,0.0,0.0,69,0.00,,,0.11,Wunderground v.1.13,2013-08-02 16:24:00,
2013-08-02 12:30:00,80.9,69.8,29.93,North,352,0.0,0.0,69,0.00,,,0.11,Wunderground v.1.13,2013-08-02 16:30:00,
2013-08-02 12:36:00,81.2,68.8,29.94,North,352,0.0,0.0,66,0.00,,,0.11,Wunderground v.1.13,2013-08-02 16:36:00,
2013-08-02 12:42:00,82.0,69.5,29.94,North,352,0.0,0.0,66,0.00,,,0.11,Wunderground v.1.13,2013-08-02 16:42:00,
2013-08-02 12:48:00,83.0,71.3,29.94,North,352,0.0,0.0,68,0.00,,,0.11,Wunderground v.1.13,2013-08-02 16:48:00,
2013-08-02 12:54:00,84.5,68.6,29.94,North,352,0.0,0.0,59,0.00,,,0.11,Wunderground v.1.13,2013-08-02 16:54:00,
2013-08-02 13:00:00,83.2,69.8,29.94,North,352,0.0,0.0,64,0.00,,,0.11,Wunderground v.1.13,2013-08-02 17:00:00,
2013-08-02 13:06:00,83.0,70.0,29.93,North,352,0.0,0.0,65,0.00,,,0.11,Wunderground v.1.13,2013-08-02 17:06:00,
2013-08-02 13:12:00,83.4,69.5,29.93,North,352,0.0,0.0,63,0.00,,,0.11,Wunderground v.1.13,2013-08-02 17:12:00,
2013-08-02 13:18:00,82.8,68.4,29.93,North,352,0.0,0.0,62,0.00,,,0.11,Wunderground v.1.13,2013-08-02 17:18:00,
2013-08-02 13:24:00,82.4,71.2,29.93,North,352,0.0,0.0,69,0.00,,,0.11,Wunderground v.1.13,2013-08-02 17:24:00,
2013-08-02 13:30:00,83.6,69.2,29.93,North,352,0.0,0.0,62,0.00,,,0.11,Wunderground v.1.13,2013-08-02 17:30:00,
2013-08-02 13:36:00,84.0,70.0,29.93,North,352,0.0,0.0,63,0.00,,,0.11,Wunderground v.1.13,2013-08-02 17:36:00,
2013-08-02 13:42:00,84.9,68.0,29.93,North,352,0.0,0.0,57,0.00,,,0.11,Wunderground v.1.13,2013-08-02 17:42:00,
2013-08-02 13:48:00,83.4,69.5,29.92,North,352,0.0,0.0,63,0.00,,,0.11,Wunderground v.1.13,2013-08-02 17:48:00,
2013-08-02 13:54:00,84.0,69.6,29.92,North,352,0.0,0.0,62,0.00,,,0.11,Wunderground v.1.13,2013-08-02 17:54:00,
2013-08-02 14:00:00,85.5,68.0,29.92,North,352,0.0,0.0,56,0.00,,,0.11,Wunderground v.1.13,2013-08-02 18:00:00,
2013-08-02 14:06:00,86.3,67.7,29.91,North,352,0.0,0.0,54,0.00,,,0.11,Wunderground v.1.13,2013-08-02 18:06:00,
2013-08-02 14:12:00,84.5,70.5,29.91,North,352,0.0,0.0,63,0.00,,,0.11,Wunderground v.1.13,2013-08-02 18:12:00,
2013-08-02 14:18:00,84.5,71.0,29.92,North,352,0.0,0.0,64,0.00,,,0.11,Wunderground v.1.13,2013-08-02 18:18:00,
2013-08-02 14:24:00,84.0,70.0,29.92,North,352,0.0,0.0,63,0.00,,,0.11,Wunderground v.1.13,2013-08-02 18:24:00,
2013-08-02 14:30:00,84.7,70.7,29.92,North,352,0.0,0.0,63,0.00,,,0.11,Wunderground v.1.13,2013-08-02 18:30:00,
2013-08-02 14:36:00,84.1,70.1,29.91,North,352,0.0,0.0,63,0.00,,,0.11,Wunderground v.1.13,2013-08-02 18:36:00,
2013-08-02 14:42:00,84.1,68.7,29.91,North,352,0.0,0.0,60,0.00,,,0.11,Wunderground v.1.13,2013-08-02 18:42:00,
2013-08-02 14:47:00,84.1,69.7,29.91,North,352,0.0,0.0,62,0.00,,,0.11,Wunderground v.1.13,2013-08-02 18:47:00,
2013-08-02 14:53:00,83.8,72.1,29.91,North,352,0.0,0.0,68,0.00,,,0.11,Wunderground v.1.13,2013-08-02 18:53:00,
2013-08-02 15:00:00,84.1,68.2,29.91,North,352,0.0,0.0,59,0.00,,,0.11,Wunderground v.1.13,2013-08-02 19:00:00,
2013-08-02 15:06:00,84.0,68.6,29.91,North,352,0.0,0.0,60,0.00,,,0.11,Wunderground v.1.13,2013-08-02 19:06:00,
2013-08-02 15:12:00,84.0,68.6,29.91,North,352,0.0,0.0,60,0.00,,,0.11,Wunderground v.1.13,2013-08-02 19:12:00,
2013-08-02 15:18:00,84.5,70.0,29.90,North,352,0.0,0.0,62,0.00,,,0.11,Wunderground v.1.13,2013-08-02 19:18:00,
2013-08-02 15:24:00,84.9,69.5,29.90,North,352,0.0,0.0,60,0.00,,,0.11,Wunderground v.1.13,2013-08-02 19:24:00,
2013-08-02 15:30:00,85.3,66.8,29.90,North,352,0.0,0.0,54,0.00,,,0.11,Wunderground v.1.13,2013-08-02 19:30:00,
2013-08-02 15:36:00,85.9,66.8,29.90,North,352,0.0,0.0,53,0.00,,,0.11,Wunderground v.1.13,2013-08-02 19:36:00,
2013-08-02 15:42:00,86.1,68.6,29.90,North,352,0.0,0.0,56,0.00,,,0.11,Wunderground v.1.13,2013-08-02 19:42:00,
2013-08-02 15:48:00,86.1,69.1,29.90,North,352,0.0,0.0,57,0.00,,,0.11,Wunderground v.1.13,2013-08-02 19:48:00,
2013-08-02 15:54:00,85.7,70.7,29.90,North,352,0.0,0.0,61,0.00,,,0.11,Wunderground v.1.13,2013-08-02 19:54:00,
2013-08-02 16:00:00,85.5,71.9,29.90,North,352,0.0,0.0,64,0.00,,,0.11,Wunderground v.1.13,2013-08-02 20:00:00,
2013-08-02 16:06:00,85.3,70.8,29.90,North,352,0.0,3.0,62,0.00,,,0.11,Wunderground v.1.13,2013-08-02 20:06:00,
2013-08-02 16:12:00,84.9,70.4,29.90,North,352,0.0,0.0,62,0.00,,,0.11,Wunderground v.1.13,2013-08-02 20:12:00,
2013-08-02 16:18:00,84.7,70.2,29.90,North,352,0.0,0.0,62,0.00,,,0.11,Wunderground v.1.13,2013-08-02 20:18:00,
2013-08-02 16:24:00,84.7,71.6,29.90,North,352,0.0,0.0,65,0.00,,,0.11,Wunderground v.1.13,2013-08-02 20:24:00,
2013-08-02 16:30:00,84.7,72.1,29.90,North,352,0.0,0.0,66,0.00,,,0.11,Wunderground v.1.13,2013-08-02 20:30:00,
2013-08-02 16:36:00,84.5,71.9,29.90,North,352,0.0,0.0,66,0.00,,,0.11,Wunderground v.1.13,2013-08-02 20:36:00,
2013-08-02 16:42:00,84.3,71.7,29.90,North,352,0.0,0.0,66,0.00,,,0.11,Wunderground v.1.13,2013-08-02 20:42:00,
2013-08-02 16:48:00,84.1,72.0,29.90,North,352,0.0,0.0,67,0.00,,,0.11,Wunderground v.1.13,2013-08-02 20:48:00,
2013-08-02 16:54:00,84.0,72.3,29.90,North,352,0.0,0.0,68,0.00,,,0.11,Wunderground v.1.13,2013-08-02 20:54:00,
2013-08-02 17:00:00,83.6,71.9,29.90,North,352,0.0,0.0,68,0.00,,,0.11,Wunderground v.1.13,2013-08-02 21:00:00,
2013-08-02 17:06:00,83.4,72.6,29.90,North,352,0.0,0.0,70,0.00,,,0.11,Wunderground v.1.13,2013-08-02 21:06:00,
2013-08-02 17:12:00,83.2,72.4,29.90,North,352,0.0,0.0,70,0.00,,,0.11,Wunderground v.1.13,2013-08-02 21:12:00,
2013-08-02 17:18:00,83.0,71.8,29.90,North,352,0.0,0.0,69,0.00,,,0.11,Wunderground v.1.13,2013-08-02 21:18:00,
2013-08-02 17:23:00,82.6,69.2,29.90,North,352,0.0,0.0,64,0.00,,,0.11,Wunderground v.1.13,2013-08-02 21:23:00,
2013-08-02 17:30:00,82.8,69.8,29.90,North,352,0.0,0.0,65,0.00,,,0.11,Wunderground v.1.13,2013-08-02 21:30:00,
2013-08-02 17:36:00,82.8,70.7,29.89,North,352,0.0,0.0,67,0.00,,,0.11,Wunderground v.1.13,2013-08-02 21:36:00,
2013-08-02 17:42:00,83.0,70.5,29.89,North,352,0.0,0.0,66,0.00,,,0.11,Wunderground v.1.13,2013-08-02 21:42:00,
2013-08-02 17:48:00,83.0,70.9,29.90,North,352,0.0,0.0,67,0.00,,,0.11,Wunderground v.1.13,2013-08-02 21:48:00,
2013-08-02 17:54:00,82.8,70.3,29.90,North,352,0.0,0.0,66,0.00,,,0.11,Wunderground v.1.13,2013-08-02 21:54:00,
2013-08-02 18:00:00,82.6,70.5,29.90,North,352,0.0,0.0,67,0.00,,,0.11,Wunderground v.1.13,2013-08-02 22:00:00,
2013-08-02 18:06:00,82.4,69.9,29.89,North,352,0.0,0.0,66,0.00,,,0.11,Wunderground v.1.13,2013-08-02 22:06:00,
2013-08-02 18:12:00,82.4,70.8,29.89,North,352,0.0,0.0,68,0.00,,,0.11,Wunderground v.1.13,2013-08-02 22:12:00,
2013-08-02 18:18:00,82.2,70.6,29.89,North,352,0.0,0.0,68,0.00,,,0.11,Wunderground v.1.13,2013-08-02 22:18:00,
2013-08-02 18:24:00,81.8,70.2,29.89,North,352,0.0,0.0,68,0.00,,,0.11,Wunderground v.1.13,2013-08-02 22:24:00,
2013-08-02 18:30:00,81.8,70.6,29.89,North,352,0.0,0.0,69,0.00,,,0.11,Wunderground v.1.13,2013-08-02 22:30:00,
2013-08-02 18:36:00,81.6,70.4,29.89,North,352,0.0,0.0,69,0.00,,,0.11,Wunderground v.1.13,2013-08-02 22:36:00,
2013-08-02 18:42:00,81.4,71.1,29.89,North,352,0.0,0.0,71,0.00,,,0.11,Wunderground v.1.13,2013-08-02 22:42:00,
2013-08-02 18:48:00,81.4,71.5,29.89,North,352,0.0,0.0,72,0.00,,,0.11,Wunderground v.1.13,2013-08-02 22:48:00,
2013-08-02 18:54:00,81.2,71.3,29.89,North,352,0.0,0.0,72,0.00,,,0.11,Wunderground v.1.13,2013-08-02 22:54:00,
2013-08-02 19:00:00,81.1,70.8,29.89,North,352,0.0,0.0,71,0.00,,,0.11,Wunderground v.1.13,2013-08-02 23:00:00,
2013-08-02 19:06:00,81.1,71.2,29.89,North,352,0.0,0.0,72,0.00,,,0.11,Wunderground v.1.13,2013-08-02 23:06:00,
2013-08-02 19:12:00,80.9,71.8,29.89,North,352,0.0,0.0,74,0.00,,,0.11,Wunderground v.1.13,2013-08-02 23:12:00,
2013-08-02 19:18:00,80.7,72.0,29.90,North,352,0.0,0.0,75,0.00,,,0.11,Wunderground v.1.13,2013-08-02 23:18:00,
2013-08-02 19:24:00,80.7,72.4,29.90,North,352,0.0,0.0,76,0.00,,,0.11,Wunderground v.1.13,2013-08-02 23:24:00,
2013-08-02 19:30:00,80.5,72.6,29.90,North,352,0.0,0.0,77,0.00,,,0.11,Wunderground v.1.13,2013-08-02 23:30:00,
2013-08-02 19:36:00,80.3,72.0,29.90,North,352,0.0,0.0,76,0.00,,,0.11,Wunderground v.1.13,2013-08-02 23:36:00,
2013-08-02 19:42:00,80.1,72.2,29.90,North,352,0.0,0.0,77,0.00,,,0.11,Wunderground v.1.13,2013-08-02 23:42:00,
2013-08-02 19:48:00,79.8,71.6,29.90,North,352,0.0,0.0,76,0.00,,,0.11,Wunderground v.1.13,2013-08-02 23:48:00,
2013-08-02 19:53:00,79.6,71.4,29.90,North,352,0.0,0.0,76,0.00,,,0.11,Wunderground v.1.13,2013-08-02 23:53:00,
2013-08-02 20:00:00,79.4,71.6,29.90,North,352,0.0,0.0,77,0.00,,,0.11,Wunderground v.1.13,2013-08-03 00:00:00,
2013-08-02 20:06:00,79.2,71.7,29.91,North,352,0.0,0.0,78,0.00,,,0.11,Wunderground v.1.13,2013-08-03 00:06:00,
2013-08-02 20:14:00,79.0,72.3,29.91,North,352,0.0,0.0,80,0.00,,,0.11,Wunderground v.1.13,2013-08-03 00:14:00,
2013-08-02 20:20:00,78.8,72.5,29.90,North,352,0.0,0.0,81,0.00,,,0.11,Wunderground v.1.13,2013-08-03 00:20:00,
2013-08-02 20:26:00,78.5,72.5,29.90,North,352,0.0,0.0,82,0.00,,,0.11,Wunderground v.1.13,2013-08-03 00:26:00,
2013-08-02 20:32:00,78.3,72.3,29.91,North,352,0.0,0.0,82,0.00,,,0.11,Wunderground v.1.13,2013-08-03 00:32:00,
2013-08-02 20:38:00,78.1,72.2,29.91,North,352,0.0,0.0,82,0.00,,,0.11,Wunderground v.1.13,2013-08-03 00:38:00,
2013-08-02 20:44:00,77.7,72.1,29.91,North,352,0.0,0.0,83,0.00,,,0.11,Wunderground v.1.13,2013-08-03 00:44:00,
2013-08-02 20:50:00,77.6,72.4,29.91,North,352,0.0,0.0,84,0.00,,,0.11,Wunderground v.1.13,2013-08-03 00:50:00,
2013-08-02 20:56:00,77.2,72.0,29.91,North,352,0.0,0.0,84,0.00,,,0.11,Wunderground v.1.13,2013-08-03 00:56:00,
2013-08-02 21:02:00,77.0,72.1,29.92,North,352,0.0,0.0,85,0.00,,,0.11,Wunderground v.1.13,2013-08-03 01:02:00,
2013-08-02 21:08:00,76.8,71.9,29.92,North,352,0.0,0.0,85,0.00,,,0.11,Wunderground v.1.13,2013-08-03 01:08:00,
2013-08-02 21:13:00,76.5,72.0,29.92,North,352,0.0,0.0,86,0.00,,,0.11,Wunderground v.1.13,2013-08-03 01:13:00,
2013-08-02 21:20:00,76.3,72.1,29.92,North,352,0.0,0.0,87,0.00,,,0.11,Wunderground v.1.13,2013-08-03 01:20:00,
2013-08-02 21:26:00,76.1,71.9,29.92,North,352,0.0,0.0,87,0.00,,,0.11,Wunderground v.1.13,2013-08-03 01:26:00,
2013-08-02 21:32:00,76.0,71.8,29.93,North,352,0.0,0.0,87,0.00,,,0.11,Wunderground v.1.13,2013-08-03 01:32:00,
2013-08-02 21:38:00,75.8,72.0,29.93,North,352,0.0,0.0,88,0.00,,,0.11,Wunderground v.1.13,2013-08-03 01:38:00,
2013-08-02 21:44:00,75.4,71.6,29.93,North,352,0.0,0.0,88,0.00,,,0.11,Wunderground v.1.13,2013-08-03 01:44:00,
2013-08-02 21:50:00,75.3,71.8,29.93,North,352,0.0,0.0,89,0.00,,,0.11,Wunderground v.1.13,2013-08-03 01:50:00,
2013-08-02 21:56:00,75.1,71.6,29.93,North,352,0.0,0.0,89,0.00,,,0.11,Wunderground v.1.13,2013-08-03 01:56:00,
2013-08-02 22:02:00,75.1,71.6,29.93,North,352,0.0,0.0,89,0.00,,,0.11,Wunderground v.1.13,2013-08-03 02:02:00,
2013-08-02 22:10:00,74.9,71.4,29.93,North,352,0.0,0.0,89,0.00,,,0.11,Wunderground v.1.13,2013-08-03 02:10:00,
2013-08-02 22:16:00,74.7,71.6,29.93,North,352,0.0,0.0,90,0.00,,,0.11,Wunderground v.1.13,2013-08-03 02:16:00,
2013-08-02 22:22:00,74.6,71.5,29.93,North,352,0.0,0.0,90,0.00,,,0.11,Wunderground v.1.13,2013-08-03 02:22:00,
2013-08-02 22:28:00,74.4,71.3,29.93,North,352,0.0,0.0,90,0.00,,,0.11,Wunderground v.1.13,2013-08-03 02:28:00,
2013-08-02 22:34:00,74.2,71.1,29.94,North,352,0.0,0.0,90,0.00,,,0.11,Wunderground v.1.13,2013-08-03 02:34:00,
2013-08-02 22:40:00,74.0,70.9,29.94,North,352,0.0,0.0,90,0.00,,,0.11,Wunderground v.1.13,2013-08-03 02:40:00,
2013-08-02 22:48:00,74.0,71.2,29.94,North,352,0.0,0.0,91,0.00,,,0.11,Wunderground v.1.13,2013-08-03 02:48:00,
2013-08-02 22:54:00,73.9,71.1,29.94,North,352,0.0,0.0,91,0.00,,,0.11,Wunderground v.1.13,2013-08-03 02:54:00,
2013-08-02 23:00:00,73.7,70.9,29.94,North,352,0.0,0.0,91,0.00,,,0.11,Wunderground v.1.13,2013-08-03 03:00:00,
2013-08-02 23:06:00,73.5,70.7,29.93,North,352,0.0,0.0,91,0.00,,,0.11,Wunderground v.1.13,2013-08-03 03:06:00,
2013-08-02 23:11:00,73.5,70.7,29.93,North,352,0.0,0.0,91,0.00,,,0.11,Wunderground v.1.13,2013-08-03 03:11:00,
2013-08-02 23:17:00,73.3,70.5,29.93,North,352,0.0,0.0,91,0.00,,,0.11,Wunderground v.1.13,2013-08-03 03:17:00,
2013-08-02 23:24:00,73.2,70.4,29.93,North,352,0.0,0.0,91,0.00,,,0.11,Wunderground v.1.13,2013-08-03 03:24:00,
2013-08-02 23:30:00,73.2,70.4,29.93,North,352,0.0,0.0,91,0.00,,,0.11,Wunderground v.1.13,2013-08-03 03:30:00,
2013-08-02 23:36:00,73.0,70.5,29.93,North,352,0.0,0.0,92,0.00,,,0.11,Wunderground v.1.13,2013-08-03 03:36:00,
2013-08-02 23:41:00,73.0,70.5,29.93,North,352,0.0,0.0,92,0.00,,,0.11,Wunderground v.1.13,2013-08-03 03:41:00,
2013-08-02 23:48:00,72.8,70.3,29.93,North,352,0.0,0.0,92,0.00,,,0.11,Wunderground v.1.13,2013-08-03 03:48:00,
2013-08-02 23:54:00,72.7,70.2,29.93,North,352,0.0,0.0,92,0.00,,,0.11,Wunderground v.1.13,2013-08-03 03:54:00,